PIMOHWEATHER Station Historical Data
 
Daily Summary for January 27, 2021 Units:  Metric    English   Both
Daily Weekly Monthly Yearly
  Current: High: Low: Average:
Temperature: 25.2 °C 30.1 °C 24.9 °C 26.5 °C
Dew Point: 22.7 °C 24.1 °C 21.9 °C 22.6 °C
Humidity: 86% 87% 66% 79%
Wind Speed: 1km/h 30km/h 0km/h 7.4km/h
Wind Gust: 4km/h 44km/h - -
WindNNW - - SSE
Pressure: 1014.9 hPa 1015.2 hPa 1011.6 hPa -
Precipitation: 10.49 mm      
 
 
Tabular Data for January 27, 2021
Time Temperature Dew Point Pressure Wind Wind Speed Wind Gust Humidity Rainfall Rate (Hourly) solar
00:04 26.2 °C 22.7 °C 1014.3 hPa Calm     81% 0.00 mm 0.00 W/m2
00:09 26.1 °C 22.8 °C 1014.2 hPa Calm     82% 0.00 mm 0.00 W/m2
00:14 26.1 °C 22.8 °C 1014.2 hPa North 2 km/h 4 km/h 82% 0.00 mm 0.00 W/m2
00:19 26.0 °C 22.5 °C 1014.3 hPa North 2 km/h 4 km/h 81% 0.00 mm 0.00 W/m2
00:24 26.0 °C 22.5 °C 1014.1 hPa North 2 km/h 4 km/h 81% 0.00 mm 0.00 W/m2
00:29 26.0 °C 22.5 °C 1014.1 hPa Calm     81% 0.00 mm 0.00 W/m2
00:34 26.0 °C 22.5 °C 1013.9 hPa Calm     81% 0.00 mm 0.00 W/m2
00:39 25.9 °C 22.4 °C 1014.1 hPa Calm     81% 0.00 mm 0.00 W/m2
00:44 26.0 °C 22.4 °C 1014.1 hPa Calm     81% 0.00 mm 0.00 W/m2
00:49 26.0 °C 22.5 °C 1013.8 hPa Calm     81% 0.00 mm 0.00 W/m2
00:54 26.1 °C 22.6 °C 1014.0 hPa Calm     81% 0.00 mm 0.00 W/m2
00:59 26.1 °C 22.6 °C 1013.8 hPa Calm     81% 0.00 mm 0.00 W/m2
01:04 26.1 °C 22.6 °C 1013.8 hPa North 2 km/h 4 km/h 81% 0.00 mm 0.00 W/m2
01:09 26.0 °C 22.5 °C 1013.7 hPa Calm     81% 0.00 mm 0.00 W/m2
01:14 26.0 °C 22.7 °C 1013.7 hPa Calm     82% 0.00 mm 0.00 W/m2
01:19 26.0 °C 22.7 °C 1013.7 hPa North 3 km/h 4 km/h 82% 0.00 mm 0.00 W/m2
01:24 25.9 °C 22.6 °C 1013.6 hPa North 1 km/h 4 km/h 82% 0.00 mm 0.00 W/m2
01:29 25.9 °C 22.6 °C 1013.5 hPa Calm     82% 0.00 mm 0.00 W/m2
01:34 25.9 °C 22.6 °C 1013.4 hPa Calm     82% 0.00 mm 0.00 W/m2
01:39 25.9 °C 22.6 °C 1013.4 hPa Calm     82% 0.00 mm 0.00 W/m2
01:44 25.9 °C 22.6 °C 1013.3 hPa Calm     82% 0.00 mm 0.00 W/m2
01:49 25.8 °C 22.5 °C 1013.5 hPa North 2 km/h 4 km/h 82% 0.00 mm 0.00 W/m2
01:54 25.8 °C 22.5 °C 1013.2 hPa Calm     82% 0.00 mm 0.00 W/m2
01:59 25.8 °C 22.5 °C 1013.3 hPa Calm     82% 0.00 mm 0.00 W/m2
02:04 25.9 °C 22.6 °C 1013.1 hPa Calm     82% 0.00 mm 0.00 W/m2
02:09 25.9 °C 22.6 °C 1013.2 hPa Calm     82% 0.00 mm 0.00 W/m2
02:14 25.9 °C 22.6 °C 1013.2 hPa Calm     82% 0.00 mm 0.00 W/m2
02:19 26.0 °C 22.7 °C 1013.3 hPa Calm     82% 0.00 mm 0.00 W/m2
02:24 26.0 °C 22.7 °C 1013.1 hPa Calm     82% 0.00 mm 0.00 W/m2
02:29 26.0 °C 22.7 °C 1013.0 hPa Calm     82% 0.00 mm 0.00 W/m2
02:34 26.0 °C 22.7 °C 1013.0 hPa North 4 km/h 4 km/h 82% 0.00 mm 0.00 W/m2
02:39 25.9 °C 22.6 °C 1012.7 hPa Calm   4 km/h 82% 0.00 mm 0.00 W/m2
02:44 25.9 °C 22.4 °C 1012.9 hPa North 4 km/h 4 km/h 81% 0.00 mm 0.00 W/m2
02:49 25.9 °C 22.2 °C 1012.8 hPa North 6 km/h 8 km/h 80% 0.00 mm 0.00 W/m2
02:54 25.9 °C 22.2 °C 1012.8 hPa North 5 km/h 8 km/h 80% 0.00 mm 0.00 W/m2
02:59 25.9 °C 22.2 °C 1012.7 hPa North 5 km/h 8 km/h 80% 0.00 mm 0.00 W/m2
03:04 25.9 °C 22.2 °C 1012.8 hPa North 4 km/h 4 km/h 80% 0.00 mm 0.00 W/m2
03:09 25.9 °C 22.2 °C 1012.6 hPa North 7 km/h 8 km/h 80% 0.00 mm 0.00 W/m2
03:14 25.9 °C 22.2 °C 1012.6 hPa North 4 km/h 8 km/h 80% 0.00 mm 0.00 W/m2
03:19 25.8 °C 22.1 °C 1012.6 hPa NNW 5 km/h 8 km/h 80% 0.00 mm 0.00 W/m2
03:24 25.9 °C 22.2 °C 1012.5 hPa North 6 km/h 8 km/h 80% 0.00 mm 0.00 W/m2
03:29 25.9 °C 22.2 °C 1012.4 hPa North 4 km/h 4 km/h 80% 0.00 mm 0.00 W/m2
03:34 25.9 °C 22.2 °C 1012.5 hPa North 4 km/h 8 km/h 80% 0.00 mm 0.00 W/m2
03:39 25.9 °C 22.2 °C 1012.5 hPa NNE 4 km/h 8 km/h 80% 0.00 mm 0.00 W/m2
03:44 25.9 °C 22.2 °C 1012.4 hPa North 4 km/h 4 km/h 80% 0.00 mm 0.00 W/m2
03:49 25.9 °C 22.2 °C 1012.4 hPa Calm     80% 0.00 mm 0.00 W/m2
03:54 25.9 °C 22.2 °C 1012.5 hPa NNE 4 km/h 4 km/h 80% 0.00 mm 0.00 W/m2
03:59 25.9 °C 22.0 °C 1012.5 hPa ENE 8 km/h 8 km/h 79% 0.00 mm 0.00 W/m2
04:04 26.0 °C 22.1 °C 1012.6 hPa NE 1 km/h 4 km/h 79% 0.00 mm 0.00 W/m2
04:09 26.0 °C 22.1 °C 1012.7 hPa Calm     79% 0.00 mm 0.00 W/m2
04:14 26.0 °C 22.1 °C 1012.7 hPa Calm     79% 0.00 mm 0.00 W/m2
04:19 26.0 °C 22.1 °C 1012.7 hPa Calm   4 km/h 79% 0.00 mm 0.00 W/m2
04:24 26.1 °C 22.2 °C 1012.8 hPa NE 1 km/h 4 km/h 79% 0.00 mm 0.00 W/m2
04:29 26.1 °C 22.2 °C 1012.8 hPa NE 1 km/h 4 km/h 79% 0.00 mm 0.00 W/m2
04:34 26.1 °C 22.2 °C 1012.9 hPa ENE 8 km/h 12 km/h 79% 0.00 mm 0.00 W/m2
04:39 26.1 °C 22.2 °C 1012.8 hPa NE 8 km/h 8 km/h 79% 0.00 mm 0.00 W/m2
04:44 26.0 °C 22.1 °C 1012.9 hPa Calm     79% 0.00 mm 0.00 W/m2
04:49 26.0 °C 22.3 °C 1012.9 hPa NNE 4 km/h 4 km/h 80% 0.00 mm 0.00 W/m2
04:54 25.9 °C 22.2 °C 1012.8 hPa North 3 km/h 4 km/h 80% 0.00 mm 0.00 W/m2
04:59 25.9 °C 22.2 °C 1012.9 hPa North 6 km/h 8 km/h 80% 0.00 mm 0.00 W/m2
05:04 25.9 °C 22.2 °C 1012.9 hPa North 7 km/h 8 km/h 80% 0.00 mm 0.00 W/m2
05:09 25.9 °C 22.2 °C 1013.0 hPa North 6 km/h 8 km/h 80% 0.00 mm 0.00 W/m2
05:14 25.9 °C 22.2 °C 1013.0 hPa North 3 km/h 4 km/h 80% 0.00 mm 0.00 W/m2
05:19 25.8 °C 22.0 °C 1013.0 hPa Calm     80% 0.00 mm 0.00 W/m2
05:24 25.8 °C 21.9 °C 1013.1 hPa Calm     79% 0.00 mm 0.00 W/m2
05:29 25.8 °C 22.1 °C 1013.1 hPa North 4 km/h 4 km/h 80% 0.00 mm 0.00 W/m2
05:34 25.9 °C 22.2 °C 1013.1 hPa North 4 km/h 4 km/h 80% 0.00 mm 0.00 W/m2
05:39 25.9 °C 22.2 °C 1013.2 hPa North 5 km/h 8 km/h 80% 0.00 mm 0.00 W/m2
05:44 25.9 °C 22.2 °C 1013.2 hPa NNW 10 km/h 12 km/h 80% 0.00 mm 0.00 W/m2
05:49 25.8 °C 22.1 °C 1013.1 hPa NNW 15 km/h 20 km/h 80% 0.00 mm 0.00 W/m2
05:54 25.8 °C 22.3 °C 1013.3 hPa North 14 km/h 20 km/h 81% 0.00 mm 0.00 W/m2
05:59 25.6 °C 22.1 °C 1013.4 hPa NNW 10 km/h 12 km/h 81% 0.00 mm 0.00 W/m2
06:04 25.6 °C 22.1 °C 1013.4 hPa North 10 km/h 12 km/h 81% 0.00 mm 0.00 W/m2
06:09 25.6 °C 22.1 °C 1013.6 hPa NNW 6 km/h 8 km/h 81% 0.00 mm 0.00 W/m2
06:14 25.7 °C 22.2 °C 1013.6 hPa North 6 km/h 8 km/h 81% 0.00 mm 0.00 W/m2
06:19 25.7 °C 22.2 °C 1013.6 hPa North 4 km/h 4 km/h 81% 0.00 mm 0.00 W/m2
06:24 25.6 °C 22.1 °C 1013.6 hPa North 5 km/h 8 km/h 81% 0.00 mm 0.40 W/m2
06:29 25.6 °C 22.1 °C 1013.5 hPa North 6 km/h 8 km/h 81% 0.00 mm 1.70 W/m2
06:34 25.6 °C 22.1 °C 1013.6 hPa NNE 4 km/h 4 km/h 81% 0.00 mm 4.80 W/m2
06:39 25.6 °C 22.1 °C 1013.7 hPa North 4 km/h 4 km/h 81% 0.00 mm 6.90 W/m2
06:44 25.5 °C 22.0 °C 1013.7 hPa Calm     81% 0.00 mm 9.90 W/m2
06:49 25.5 °C 22.0 °C 1013.5 hPa Calm   4 km/h 81% 0.00 mm 13.00 W/m2
06:54 25.5 °C 22.0 °C 1013.4 hPa Calm     81% 0.00 mm 13.80 W/m2
06:59 25.5 °C 22.0 °C 1013.6 hPa NNE 3 km/h 4 km/h 81% 0.00 mm 18.60 W/m2
07:04 25.6 °C 22.1 °C 1013.6 hPa NE 4 km/h 4 km/h 81% 0.00 mm 26.80 W/m2
07:09 25.7 °C 22.2 °C 1013.5 hPa NNE 4 km/h 4 km/h 81% 0.00 mm 37.70 W/m2
07:14 25.7 °C 22.1 °C 1013.5 hPa NNE 5 km/h 8 km/h 81% 0.00 mm 44.20 W/m2
07:19 25.9 °C 22.2 °C 1013.7 hPa NNE 4 km/h 4 km/h 80% 0.00 mm 60.20 W/m2
07:24 26.0 °C 22.3 °C 1013.8 hPa NNE 1 km/h 4 km/h 80% 0.00 mm 76.70 W/m2
07:29 26.2 °C 22.3 °C 1013.9 hPa NNE 5 km/h 8 km/h 79% 0.00 mm 104.50 W/m2
07:34 26.3 °C 22.4 °C 1013.8 hPa NNE 4 km/h 4 km/h 79% 0.00 mm 106.70 W/m2
07:39 26.4 °C 22.5 °C 1013.8 hPa North 5 km/h 8 km/h 79% 0.00 mm 113.20 W/m2
07:44 26.5 °C 22.4 °C 1013.8 hPa NNW 7 km/h 8 km/h 78% 0.00 mm 133.90 W/m2
07:49 26.6 °C 22.4 °C 1014.0 hPa North 8 km/h 8 km/h 78% 0.00 mm 152.70 W/m2
07:54 26.9 °C 22.3 °C 1014.0 hPa North 14 km/h 20 km/h 77% 0.00 mm 159.50 W/m2
07:59 26.9 °C 22.3 °C 1014.3 hPa North 12 km/h 16 km/h 76% 0.00 mm 128.80 W/m2
08:04 27.0 °C 22.4 °C 1014.4 hPa NNE 12 km/h 16 km/h 76% 0.00 mm 140.10 W/m2
08:09 26.8 °C 22.2 °C 1014.2 hPa North 8 km/h 12 km/h 76% 0.00 mm 136.60 W/m2
08:14 26.8 °C 22.1 °C 1014.4 hPa North 4 km/h 4 km/h 76% 0.00 mm 151.80 W/m2
08:19 27.0 °C 22.2 °C 1014.4 hPa North 5 km/h 8 km/h 75% 0.00 mm 142.30 W/m2
08:24 27.0 °C 22.2 °C 1014.4 hPa North 8 km/h 8 km/h 75% 0.00 mm 121.00 W/m2
08:29 27.1 °C 22.2 °C 1014.6 hPa NNE 6 km/h 8 km/h 75% 0.00 mm 252.00 W/m2
08:34 27.2 °C 22.2 °C 1014.3 hPa North 12 km/h 16 km/h 74% 0.00 mm 227.70 W/m2
08:39 27.2 °C 22.2 °C 1014.4 hPa NNW 12 km/h 16 km/h 75% 0.00 mm 76.70 W/m2
08:44 27.0 °C 22.2 °C 1014.4 hPa North 6 km/h 8 km/h 75% 0.00 mm 64.60 W/m2
08:49 27.1 °C 22.2 °C 1014.5 hPa North 2 km/h 4 km/h 75% 0.00 mm 99.70 W/m2
08:54 27.2 °C 22.2 °C 1014.8 hPa ENE 9 km/h 12 km/h 74% 0.00 mm 103.10 W/m2
08:59 27.2 °C 22.2 °C 1014.5 hPa ENE 10 km/h 12 km/h 74% 0.00 mm 132.70 W/m2
09:04 27.2 °C 22.1 °C 1014.4 hPa ENE 11 km/h 12 km/h 74% 0.00 mm 160.50 W/m2
09:09 27.4 °C 22.1 °C 1014.6 hPa North 6 km/h 8 km/h 73% 0.00 mm 151.80 W/m2
09:14 27.4 °C 22.1 °C 1014.6 hPa NNE 11 km/h 12 km/h 73% 0.00 mm 100.20 W/m2
09:19 27.3 °C 22.2 °C 1014.7 hPa North 8 km/h 8 km/h 74% 0.00 mm 107.90 W/m2
09:24 27.6 °C 22.2 °C 1014.6 hPa NNE 9 km/h 12 km/h 73% 0.00 mm 123.60 W/m2
09:29 27.8 °C 22.2 °C 1014.8 hPa NNE 9 km/h 12 km/h 72% 0.00 mm 132.70 W/m2
09:34 27.8 °C 22.2 °C 1014.8 hPa North 9 km/h 16 km/h 72% 0.00 mm 147.90 W/m2
09:39 27.9 °C 22.2 °C 1014.7 hPa North 4 km/h 8 km/h 71% 0.00 mm 175.20 W/m2
09:44 28.1 °C 22.3 °C 1014.6 hPa North 8 km/h 8 km/h 71% 0.00 mm 213.00 W/m2
09:49 28.2 °C 22.2 °C 1014.6 hPa NE 9 km/h 12 km/h 70% 0.00 mm 213.00 W/m2
09:54 28.4 °C 22.3 °C 1014.6 hPa NW 8 km/h 12 km/h 70% 0.00 mm 243.70 W/m2
09:59 28.4 °C 22.3 °C 1014.5 hPa ENE 13 km/h 16 km/h 70% 0.00 mm 308.80 W/m2
10:04 28.9 °C 22.4 °C 1014.4 hPa NNW 8 km/h 12 km/h 69% 0.00 mm 635.50 W/m2
10:09 29.0 °C 22.6 °C 1014.4 hPa NE 9 km/h 12 km/h 69% 0.00 mm 329.70 W/m2
10:14 28.9 °C 22.5 °C 1014.4 hPa North 8 km/h 12 km/h 69% 0.00 mm 343.00 W/m2
10:19 29.1 °C 22.5 °C 1014.4 hPa North 10 km/h 12 km/h 68% 0.00 mm 557.00 W/m2
10:24 29.4 °C 22.6 °C 1014.3 hPa North 15 km/h 16 km/h 67% 0.00 mm 476.70 W/m2
10:29 29.1 °C 22.5 °C 1014.4 hPa NNW 11 km/h 12 km/h 68% 0.00 mm 252.40 W/m2
10:34 29.0 °C 22.3 °C 1014.4 hPa North 9 km/h 12 km/h 68% 0.00 mm 316.60 W/m2
10:39 29.2 °C 22.5 °C 1014.3 hPa North 14 km/h 20 km/h 68% 0.00 mm 632.80 W/m2
10:44 29.5 °C 22.5 °C 1014.1 hPa NNW 11 km/h 12 km/h 66% 0.00 mm 463.30 W/m2
10:49 29.3 °C 22.3 °C 1014.1 hPa NNW 4 km/h 4 km/h 67% 0.00 mm 213.00 W/m2
10:54 29.3 °C 22.3 °C 1014.0 hPa NNE 11 km/h 16 km/h 67% 0.00 mm 190.80 W/m2
10:59 29.1 °C 22.6 °C 1014.1 hPa North 19 km/h 20 km/h 68% 0.00 mm 135.30 W/m2
11:04 28.9 °C 22.4 °C 1014.2 hPa North 9 km/h 12 km/h 68% 0.00 mm 89.30 W/m2
11:09 28.9 °C 22.4 °C 1014.0 hPa NNE 6 km/h 12 km/h 68% 0.00 mm 99.30 W/m2
11:14 28.9 °C 22.4 °C 1014.2 hPa NNW 11 km/h 12 km/h 68% 0.00 mm 121.80 W/m2
11:19 28.9 °C 22.4 °C 1014.0 hPa North 8 km/h 12 km/h 68% 0.00 mm 155.70 W/m2
11:24 28.9 °C 22.4 °C 1014.0 hPa NNE 4 km/h 4 km/h 68% 0.00 mm 153.90 W/m2
11:29 29.1 °C 22.5 °C 1013.9 hPa North 11 km/h 12 km/h 68% 0.00 mm 166.10 W/m2
11:34 29.3 °C 22.5 °C 1013.8 hPa North 14 km/h 20 km/h 68% 0.00 mm 193.10 W/m2
11:39 29.3 °C 22.8 °C 1013.8 hPa NE 6 km/h 8 km/h 68% 0.00 mm 156.60 W/m2
11:44 29.4 °C 22.5 °C 1013.7 hPa NE 6 km/h 8 km/h 67% 0.00 mm 236.80 W/m2
11:49 29.4 °C 22.4 °C 1013.6 hPa North 12 km/h 12 km/h 66% 0.00 mm 300.60 W/m2
11:54 29.3 °C 22.3 °C 1013.6 hPa NNW 7 km/h 8 km/h 66% 0.00 mm 217.80 W/m2
11:59 29.6 °C 22.7 °C 1013.7 hPa WNW 4 km/h 8 km/h 67% 0.00 mm 257.10 W/m2
12:04 29.7 °C 22.9 °C 1013.6 hPa WSW 13 km/h 16 km/h 67% 0.00 mm 298.00 W/m2
12:09 29.8 °C 23.4 °C 1013.5 hPa SSW 14 km/h 16 km/h 69% 0.00 mm 202.60 W/m2
12:14 29.4 °C 23.1 °C 1013.5 hPa SW 17 km/h 20 km/h 69% 0.00 mm 359.50 W/m2
12:19 29.5 °C 23.1 °C 1013.5 hPa SW 16 km/h 20 km/h 69% 0.00 mm 459.70 W/m2
12:24 29.5 °C 23.1 °C 1013.4 hPa SW 22 km/h 24 km/h 69% 0.00 mm 341.80 W/m2
12:29 30.0 °C 23.2 °C 1013.4 hPa WSW 20 km/h 28 km/h 68% 0.00 mm 353.90 W/m2
12:34 30.0 °C 23.7 °C 1013.4 hPa SW 23 km/h 24 km/h 69% 0.00 mm 261.10 W/m2
12:39 29.5 °C 23.2 °C 1013.3 hPa SW 22 km/h 28 km/h 69% 0.00 mm 179.60 W/m2
12:44 29.4 °C 23.1 °C 1013.1 hPa SW 17 km/h 24 km/h 69% 0.00 mm 193.90 W/m2
12:49 29.3 °C 23.0 °C 1013.0 hPa SSW 23 km/h 28 km/h 69% 0.00 mm 215.60 W/m2
12:54 29.3 °C 23.0 °C 1013.0 hPa SW 15 km/h 20 km/h 69% 0.00 mm 255.40 W/m2
12:59 29.4 °C 23.1 °C 1012.9 hPa SW 23 km/h 28 km/h 69% 0.00 mm 330.10 W/m2
13:04 29.5 °C 23.2 °C 1013.2 hPa SW 23 km/h 28 km/h 69% 0.00 mm 426.80 W/m2
13:09 30.1 °C 23.3 °C 1012.9 hPa WSW 22 km/h 28 km/h 69% 0.00 mm 585.60 W/m2
13:14 30.1 °C 23.3 °C 1012.7 hPa SSW 15 km/h 20 km/h 67% 0.00 mm 544.40 W/m2
13:19 30.0 °C 23.3 °C 1012.8 hPa SW 23 km/h 28 km/h 68% 0.00 mm 281.90 W/m2
13:24 29.6 °C 23.3 °C 1012.7 hPa SW 17 km/h 20 km/h 69% 0.00 mm 150.00 W/m2
13:29 29.6 °C 23.3 °C 1012.6 hPa SW 30 km/h 36 km/h 70% 0.00 mm 119.30 W/m2
13:34 29.0 °C 23.7 °C 1012.6 hPa SW 21 km/h 24 km/h 77% 12.60 mm 119.30 W/m2
13:39 27.9 °C 23.5 °C 1012.5 hPa SSW 20 km/h 24 km/h 78% 12.60 mm 128.30 W/m2
13:44 27.6 °C 23.4 °C 1012.4 hPa SW 20 km/h 24 km/h 78% 12.60 mm 196.50 W/m2
13:49 27.9 °C 23.5 °C 1012.4 hPa SW 17 km/h 24 km/h 77% 0.00 mm 293.20 W/m2
13:54 28.2 °C 23.4 °C 1012.2 hPa SW 26 km/h 28 km/h 76% 0.00 mm 259.40 W/m2
13:59 28.5 °C 23.2 °C 1012.0 hPa SW 26 km/h 32 km/h 74% 0.00 mm 339.20 W/m2
14:04 28.5 °C 23.4 °C 1012.1 hPa SW 15 km/h 20 km/h 74% 0.00 mm 205.50 W/m2
14:09 28.5 °C 23.6 °C 1012.2 hPa North 15 km/h 20 km/h 75% 0.00 mm 51.50 W/m2
14:14 28.0 °C 23.2 °C 1012.2 hPa NNW 15 km/h 20 km/h 75% 0.00 mm 32.90 W/m2
14:19 28.0 °C 23.2 °C 1012.0 hPa SW 21 km/h 28 km/h 75% 0.00 mm 25.60 W/m2
14:24 28.0 °C 23.4 °C 1012.1 hPa WNW 12 km/h 16 km/h 76% 1.80 mm 20.30 W/m2
14:29 27.9 °C 23.3 °C 1012.0 hPa SW 14 km/h 16 km/h 77% 1.80 mm 32.40 W/m2
14:34 27.7 °C 23.2 °C 1011.8 hPa SW 11 km/h 20 km/h 77% 1.80 mm 60.20 W/m2
14:39 27.7 °C 23.5 °C 1011.9 hPa SW 4 km/h 4 km/h 78% 0.00 mm 66.80 W/m2
14:44 27.7 °C 23.5 °C 1011.9 hPa WSW 11 km/h 16 km/h 78% 0.00 mm 89.30 W/m2
14:49 27.7 °C 23.5 °C 1011.7 hPa WSW 10 km/h 16 km/h 78% 0.00 mm 111.80 W/m2
14:54 27.8 °C 23.6 °C 1011.7 hPa WSW 12 km/h 12 km/h 78% 0.00 mm 101.90 W/m2
14:59 28.0 °C 23.6 °C 1011.6 hPa West 5 km/h 8 km/h 78% 0.00 mm 96.70 W/m2
15:04 28.2 °C 23.6 °C 1011.6 hPa SW 13 km/h 16 km/h 77% 0.00 mm 75.00 W/m2
15:09 28.2 °C 23.6 °C 1011.6 hPa NW 26 km/h 36 km/h 76% 0.00 mm 55.40 W/m2
15:14 28.1 °C 23.3 °C 1011.7 hPa NNE 19 km/h 32 km/h 75% 0.00 mm 52.50 W/m2
15:19 28.2 °C 23.4 °C 1012.1 hPa ENE 24 km/h 36 km/h 75% 3.61 mm 31.60 W/m2
15:24 28.1 °C 24.1 °C 1012.1 hPa SSE 27 km/h 44 km/h 85% 12.60 mm 60.70 W/m2
15:29 26.1 °C 23.4 °C 1012.2 hPa SW 11 km/h 16 km/h 86% 18.01 mm 77.60 W/m2
15:34 25.7 °C 23.4 °C 1012.2 hPa WNW 5 km/h 8 km/h 87% 18.01 mm 93.20 W/m2
15:39 25.7 °C 23.4 °C 1012.1 hPa SW 12 km/h 16 km/h 87% 8.99 mm 92.70 W/m2
15:44 25.4 °C 23.1 °C 1011.9 hPa WSW 10 km/h 12 km/h 87% 8.99 mm 107.50 W/m2
15:49 25.4 °C 23.1 °C 1012.1 hPa ENE 8 km/h 8 km/h 87% 8.99 mm 108.40 W/m2
15:54 25.6 °C 23.1 °C 1012.1 hPa North 7 km/h 8 km/h 86% 5.41 mm 88.00 W/m2
15:59 25.7 °C 23.2 °C 1012.1 hPa NNE 6 km/h 8 km/h 86% 1.80 mm 68.90 W/m2
16:04 25.9 °C 23.2 °C 1012.2 hPa NNE 3 km/h 4 km/h 85% 0.00 mm 49.40 W/m2
16:09 25.9 °C 23.2 °C 1012.3 hPa North 5 km/h 8 km/h 85% 0.00 mm 44.20 W/m2
16:14 26.1 °C 23.4 °C 1012.3 hPa North 15 km/h 20 km/h 85% 1.80 mm 53.30 W/m2
16:19 26.0 °C 23.1 °C 1012.2 hPa NNE 20 km/h 32 km/h 84% 3.61 mm 61.50 W/m2
16:24 26.0 °C 22.7 °C 1012.4 hPa NNE 14 km/h 24 km/h 82% 3.61 mm 64.10 W/m2
16:29 25.9 °C 22.8 °C 1012.5 hPa North 11 km/h 20 km/h 84% 1.80 mm 71.60 W/m2
16:34 25.7 °C 22.8 °C 1012.5 hPa NNE 11 km/h 20 km/h 85% 1.80 mm 70.20 W/m2
16:39 25.4 °C 22.7 °C 1012.7 hPa North 9 km/h 16 km/h 85% 1.80 mm 72.80 W/m2
16:44 25.5 °C 22.8 °C 1012.6 hPa North 13 km/h 20 km/h 85% 0.00 mm 76.70 W/m2
16:49 25.6 °C 22.8 °C 1012.6 hPa North 17 km/h 20 km/h 85% 0.00 mm 73.70 W/m2
16:54 25.7 °C 22.8 °C 1012.7 hPa NNE 11 km/h 16 km/h 84% 0.00 mm 61.50 W/m2
16:59 25.7 °C 22.6 °C 1012.9 hPa NNE 15 km/h 20 km/h 83% 0.00 mm 32.40 W/m2
17:04 25.7 °C 22.6 °C 1012.9 hPa NNE 11 km/h 16 km/h 83% 0.00 mm 23.40 W/m2
17:09 25.8 °C 22.7 °C 1012.8 hPa NNE 14 km/h 24 km/h 83% 0.00 mm 23.90 W/m2
17:14 25.9 °C 22.6 °C 1012.9 hPa North 14 km/h 20 km/h 82% 0.00 mm 22.50 W/m2
17:19 25.9 °C 22.7 °C 1012.9 hPa North 22 km/h 32 km/h 83% 0.00 mm 17.70 W/m2
17:24 25.6 °C 22.7 °C 1013.0 hPa North 21 km/h 32 km/h 85% 0.00 mm 14.70 W/m2
17:29 25.3 °C 22.6 °C 1013.0 hPa North 14 km/h 16 km/h 85% 0.00 mm 12.50 W/m2
17:34 25.3 °C 22.6 °C 1013.0 hPa North 18 km/h 24 km/h 85% 0.00 mm 10.80 W/m2
17:39 25.3 °C 22.4 °C 1013.2 hPa NNE 15 km/h 20 km/h 84% 0.00 mm 7.70 W/m2
17:44 25.3 °C 22.4 °C 1013.1 hPa North 21 km/h 28 km/h 84% 1.80 mm 6.00 W/m2
17:49 25.3 °C 22.4 °C 1013.2 hPa North 19 km/h 28 km/h 84% 1.80 mm 2.60 W/m2
17:54 25.2 °C 22.5 °C 1013.2 hPa North 14 km/h 16 km/h 85% 1.80 mm 0.90 W/m2
17:59 25.2 °C 22.5 °C 1013.1 hPa North 13 km/h 16 km/h 85% 0.00 mm 0.00 W/m2
18:04 25.2 °C 22.5 °C 1013.2 hPa North 5 km/h 8 km/h 85% 0.00 mm 0.00 W/m2
18:09 25.2 °C 22.5 °C 1013.3 hPa North 9 km/h 16 km/h 85% 0.00 mm 0.00 W/m2
18:14 25.3 °C 22.4 °C 1013.4 hPa North 6 km/h 8 km/h 84% 0.00 mm 0.00 W/m2
18:19 25.3 °C 22.4 °C 1013.4 hPa North 9 km/h 12 km/h 84% 0.00 mm 0.00 W/m2
18:24 25.4 °C 22.3 °C 1013.5 hPa North 9 km/h 12 km/h 83% 0.00 mm 0.00 W/m2
18:29 25.4 °C 22.3 °C 1013.6 hPa NNE 8 km/h 8 km/h 83% 0.00 mm 0.00 W/m2
18:34 25.5 °C 22.2 °C 1013.6 hPa NNE 8 km/h 8 km/h 82% 0.00 mm 0.00 W/m2
18:39 25.5 °C 22.2 °C 1013.6 hPa NNE 6 km/h 8 km/h 82% 0.00 mm 0.00 W/m2
18:44 25.6 °C 22.3 °C 1013.7 hPa North 2 km/h 4 km/h 82% 0.00 mm 0.00 W/m2
18:49 25.6 °C 22.3 °C 1014.0 hPa NE 4 km/h 8 km/h 82% 0.00 mm 0.00 W/m2
18:54 25.6 °C 22.3 °C 1014.0 hPa NE 5 km/h 8 km/h 82% 0.00 mm 0.00 W/m2
18:59 25.7 °C 22.4 °C 1014.0 hPa Calm     82% 0.00 mm 0.00 W/m2
19:04 25.8 °C 22.5 °C 1014.0 hPa NE 6 km/h 8 km/h 82% 0.00 mm 0.00 W/m2
19:09 25.8 °C 22.6 °C 1014.0 hPa NW 1 km/h 4 km/h 83% 0.00 mm 0.00 W/m2
19:14 25.7 °C 22.6 °C 1014.1 hPa NNE 6 km/h 12 km/h 84% 1.80 mm 0.00 W/m2
19:19 25.5 °C 22.6 °C 1014.1 hPa NE 5 km/h 8 km/h 84% 1.80 mm 0.00 W/m2
19:24 25.3 °C 22.6 °C 1014.3 hPa Calm   4 km/h 85% 1.80 mm 0.00 W/m2
19:29 25.2 °C 22.6 °C 1014.3 hPa Calm     86% 0.00 mm 0.00 W/m2
19:34 25.1 °C 22.6 °C 1014.3 hPa North 3 km/h 4 km/h 86% 1.80 mm 0.00 W/m2
19:39 25.2 °C 22.7 °C 1014.3 hPa Calm     86% 3.61 mm 0.00 W/m2
19:44 25.2 °C 22.7 °C 1014.5 hPa Calm   4 km/h 86% 3.61 mm 0.00 W/m2
19:49 25.1 °C 22.6 °C 1014.7 hPa Calm     86% 1.80 mm 0.00 W/m2
19:54 25.0 °C 22.5 °C 1014.8 hPa Calm     86% 0.00 mm 0.00 W/m2
19:59 25.1 °C 22.6 °C 1015.0 hPa Calm     86% 0.00 mm 0.00 W/m2
20:04 25.1 °C 22.6 °C 1014.8 hPa NNW 4 km/h 4 km/h 86% 0.00 mm 0.00 W/m2
20:09 25.1 °C 22.8 °C 1014.9 hPa North 4 km/h 4 km/h 87% 1.80 mm 0.00 W/m2
20:14 25.1 °C 22.8 °C 1015.1 hPa North 4 km/h 4 km/h 87% 1.80 mm 0.00 W/m2
20:19 25.0 °C 22.7 °C 1015.2 hPa North 5 km/h 8 km/h 87% 1.80 mm 0.00 W/m2
20:24 24.9 °C 22.6 °C 1015.0 hPa NNW 8 km/h 8 km/h 87% 0.00 mm 0.00 W/m2
20:29 25.0 °C 22.7 °C 1014.9 hPa NNW 8 km/h 8 km/h 87% 0.00 mm 0.00 W/m2
20:34 25.0 °C 22.7 °C 1015.0 hPa NNW 6 km/h 8 km/h 87% 0.00 mm 0.00 W/m2
20:39 24.9 °C 22.6 °C 1015.0 hPa NNW 4 km/h 4 km/h 87% 0.00 mm 0.00 W/m2
20:44 24.9 °C 22.5 °C 1014.9 hPa NNW 8 km/h 8 km/h 87% 0.00 mm 0.00 W/m2
20:49 25.0 °C 22.5 °C 1014.8 hPa NNW 8 km/h 8 km/h 86% 0.00 mm 0.00 W/m2
20:54 25.0 °C 22.5 °C 1015.0 hPa Calm     86% 0.00 mm 0.00 W/m2
20:59 25.0 °C 22.7 °C 1015.0 hPa Calm     87% 0.00 mm 0.00 W/m2
21:04 25.0 °C 22.7 °C 1015.1 hPa Calm     87% 0.00 mm 0.00 W/m2
21:09 25.1 °C 22.6 °C 1015.2 hPa Calm     86% 0.00 mm 0.00 W/m2
21:14 25.1 °C 22.6 °C 1015.2 hPa Calm     86% 0.00 mm 0.00 W/m2
21:19 25.2 °C 22.7 °C 1014.9 hPa WNW 4 km/h 4 km/h 86% 0.00 mm 0.00 W/m2
21:24 25.3 °C 22.6 °C 1014.9 hPa WNW 4 km/h 4 km/h 85% 0.00 mm 0.00 W/m2
21:29 25.3 °C 22.6 °C 1014.9 hPa WNW 4 km/h 4 km/h 85% 0.00 mm 0.00 W/m2
21:34 25.3 °C 22.8 °C 1014.9 hPa West 4 km/h 8 km/h 86% 0.00 mm 0.00 W/m2
21:39 25.2 °C 22.7 °C 1015.0 hPa West 4 km/h 4 km/h 86% 0.00 mm 0.00 W/m2
21:44 25.2 °C 22.7 °C 1015.0 hPa West 6 km/h 8 km/h 86% 0.00 mm 0.00 W/m2
21:49 25.2 °C 22.5 °C 1015.0 hPa Calm   4 km/h 85% 0.00 mm 0.00 W/m2
21:54 25.2 °C 22.5 °C 1015.1 hPa WSW 4 km/h 4 km/h 85% 0.00 mm 0.00 W/m2
21:59 25.3 °C 22.6 °C 1015.1 hPa NW 3 km/h 4 km/h 85% 0.00 mm 0.00 W/m2
22:04 25.3 °C 22.6 °C 1015.1 hPa WNW 6 km/h 8 km/h 85% 0.00 mm 0.00 W/m2
22:09 25.4 °C 22.7 °C 1015.2 hPa WNW 6 km/h 8 km/h 85% 0.00 mm 0.00 W/m2
22:14 25.4 °C 22.7 °C 1015.0 hPa West 5 km/h 8 km/h 85% 0.00 mm 0.00 W/m2
22:19 25.4 °C 22.7 °C 1015.0 hPa WNW 4 km/h 4 km/h 85% 0.00 mm 0.00 W/m2
22:24 25.4 °C 22.7 °C 1015.0 hPa WNW 5 km/h 8 km/h 85% 0.00 mm 0.00 W/m2
22:29 25.4 °C 22.5 °C 1014.9 hPa NW 4 km/h 4 km/h 84% 0.00 mm 0.00 W/m2
22:34 25.3 °C 22.6 °C 1015.0 hPa NW 3 km/h 4 km/h 85% 0.00 mm 0.00 W/m2
22:39 25.3 °C 22.6 °C 1015.1 hPa NW 2 km/h 4 km/h 85% 0.00 mm 0.00 W/m2
22:44 25.3 °C 22.8 °C 1014.9 hPa NW 4 km/h 4 km/h 86% 0.00 mm 0.00 W/m2
22:49 25.3 °C 22.8 °C 1015.0 hPa North 4 km/h 4 km/h 86% 0.00 mm 0.00 W/m2
22:54 25.2 °C 22.7 °C 1015.0 hPa Calm     86% 0.00 mm 0.00 W/m2
22:59 25.3 °C 22.8 °C 1015.0 hPa Calm     86% 0.00 mm 0.00 W/m2
23:04 25.3 °C 22.8 °C 1015.0 hPa NW 3 km/h 4 km/h 86% 0.00 mm 0.00 W/m2
23:09 25.4 °C 22.9 °C 1015.1 hPa Calm   4 km/h 86% 0.00 mm 0.00 W/m2
23:14 25.3 °C 22.8 °C 1015.0 hPa North 1 km/h 4 km/h 86% 0.00 mm 0.00 W/m2
23:19 25.3 °C 22.8 °C 1014.9 hPa NNW 4 km/h 4 km/h 86% 0.00 mm 0.00 W/m2
23:24 25.3 °C 22.8 °C 1015.1 hPa NNW 4 km/h 4 km/h 86% 0.00 mm 0.00 W/m2
23:29 25.3 °C 22.8 °C 1015.1 hPa NNW 4 km/h 4 km/h 86% 0.00 mm 0.00 W/m2
23:34 25.3 °C 22.8 °C 1015.1 hPa Calm     86% 0.00 mm 0.00 W/m2
23:39 25.4 °C 22.9 °C 1015.2 hPa NW 3 km/h 4 km/h 86% 0.00 mm 0.00 W/m2
23:44 25.3 °C 22.8 °C 1015.2 hPa Calm   4 km/h 86% 0.00 mm 0.00 W/m2
23:49 25.3 °C 22.8 °C 1014.9 hPa NNW 4 km/h 4 km/h 86% 0.00 mm 0.00 W/m2
23:54 25.2 °C 22.7 °C 1014.9 hPa NNW 1 km/h 4 km/h 86% 0.00 mm 0.00 W/m2
PIMOHWEATHER Philippines
Compliments of Weather Underground - 2 mb